sensor_id;sensor_type;location;lat;lon;timestamp;temperature;humidity
1405;DHT22;697;51.114;6.542;2023-12-29T00:00:03;11.50;99.90
1405;DHT22;697;51.114;6.542;2023-12-29T00:02:30;11.60;99.90
1405;DHT22;697;51.114;6.542;2023-12-29T00:04:57;11.60;99.90
1405;DHT22;697;51.114;6.542;2023-12-29T00:07:23;11.60;99.90
1405;DHT22;697;51.114;6.542;2023-12-29T00:09:50;11.60;99.90
1405;DHT22;697;51.114;6.542;2023-12-29T00:12:17;11.60;99.90
1405;DHT22;697;51.114;6.542;2023-12-29T00:14:43;11.60;99.90
1405;DHT22;697;51.114;6.542;2023-12-29T00:17:11;11.70;99.90
1405;DHT22;697;51.114;6.542;2023-12-29T00:19:39;11.70;99.90
1405;DHT22;697;51.114;6.542;2023-12-29T00:22:06;11.70;99.90
1405;DHT22;697;51.114;6.542;2023-12-29T00:24:33;11.70;99.90
1405;DHT22;697;51.114;6.542;2023-12-29T00:27:01;11.70;99.90
1405;DHT22;697;51.114;6.542;2023-12-29T00:29:28;11.70;99.90
1405;DHT22;697;51.114;6.542;2023-12-29T00:31:58;11.70;99.90
1405;DHT22;697;51.114;6.542;2023-12-29T00:34:27;11.70;99.90
1405;DHT22;697;51.114;6.542;2023-12-29T00:36:53;11.80;99.90
1405;DHT22;697;51.114;6.542;2023-12-29T00:39:20;11.80;99.90
1405;DHT22;697;51.114;6.542;2023-12-29T00:41:54;11.70;99.90
1405;DHT22;697;51.114;6.542;2023-12-29T00:44:20;11.70;99.90
1405;DHT22;697;51.114;6.542;2023-12-29T00:46:47;11.70;99.90
1405;DHT22;697;51.114;6.542;2023-12-29T00:49:14;11.70;99.90
1405;DHT22;697;51.114;6.542;2023-12-29T00:51:43;11.70;99.90
1405;DHT22;697;51.114;6.542;2023-12-29T00:54:10;11.70;99.90
1405;DHT22;697;51.114;6.542;2023-12-29T00:56:37;11.70;99.90
1405;DHT22;697;51.114;6.542;2023-12-29T00:59:04;11.70;99.90
1405;DHT22;697;51.114;6.542;2023-12-29T01:01:33;11.70;99.90
1405;DHT22;697;51.114;6.542;2023-12-29T01:04:01;11.70;99.90
1405;DHT22;697;51.114;6.542;2023-12-29T01:06:27;11.70;99.90
1405;DHT22;697;51.114;6.542;2023-12-29T01:08:55;11.70;99.90
1405;DHT22;697;51.114;6.542;2023-12-29T01:11:22;11.70;99.90
1405;DHT22;697;51.114;6.542;2023-12-29T01:13:49;11.70;99.90
1405;DHT22;697;51.114;6.542;2023-12-29T01:16:16;11.70;99.90
1405;DHT22;697;51.114;6.542;2023-12-29T01:18:43;11.70;99.90
1405;DHT22;697;51.114;6.542;2023-12-29T01:21:10;11.80;99.90
1405;DHT22;697;51.114;6.542;2023-12-29T01:23:36;11.70;99.90
1405;DHT22;697;51.114;6.542;2023-12-29T01:26:05;11.70;99.90
1405;DHT22;697;51.114;6.542;2023-12-29T01:28:31;11.70;99.90
1405;DHT22;697;51.114;6.542;2023-12-29T01:30:58;11.70;99.90
1405;DHT22;697;51.114;6.542;2023-12-29T01:33:25;11.70;99.90
1405;DHT22;697;51.114;6.542;2023-12-29T01:35:52;11.60;99.90
1405;DHT22;697;51.114;6.542;2023-12-29T01:38:19;11.60;99.90
1405;DHT22;697;51.114;6.542;2023-12-29T01:40:46;11.60;99.90
1405;DHT22;697;51.114;6.542;2023-12-29T01:43:14;11.60;99.90
1405;DHT22;697;51.114;6.542;2023-12-29T01:45:41;11.60;99.90
1405;DHT22;697;51.114;6.542;2023-12-29T01:48:08;11.60;99.90
1405;DHT22;697;51.114;6.542;2023-12-29T01:50:35;11.60;99.90
1405;DHT22;697;51.114;6.542;2023-12-29T01:53:03;11.60;99.90
1405;DHT22;697;51.114;6.542;2023-12-29T01:55:30;11.60;99.90
1405;DHT22;697;51.114;6.542;2023-12-29T01:57:58;11.60;99.90
1405;DHT22;697;51.114;6.542;2023-12-29T02:00:27;11.60;99.90
1405;DHT22;697;51.114;6.542;2023-12-29T02:02:54;11.60;99.90
1405;DHT22;697;51.114;6.542;2023-12-29T02:05:23;11.60;99.90
1405;DHT22;697;51.114;6.542;2023-12-29T02:07:52;11.50;99.90
1405;DHT22;697;51.114;6.542;2023-12-29T02:10:19;11.50;99.90
1405;DHT22;697;51.114;6.542;2023-12-29T02:12:47;11.50;99.90
1405;DHT22;697;51.114;6.542;2023-12-29T02:15:15;11.50;99.90
1405;DHT22;697;51.114;6.542;2023-12-29T02:17:47;11.40;99.90
1405;DHT22;697;51.114;6.542;2023-12-29T02:20:14;11.40;99.90
1405;DHT22;697;51.114;6.542;2023-12-29T02:22:41;11.30;99.90
1405;DHT22;697;51.114;6.542;2023-12-29T02:25:09;11.40;99.90
1405;DHT22;697;51.114;6.542;2023-12-29T02:27:43;11.30;99.90
1405;DHT22;697;51.114;6.542;2023-12-29T02:30:18;11.20;99.90
1405;DHT22;697;51.114;6.542;2023-12-29T02:32:47;11.20;99.90
1405;DHT22;697;51.114;6.542;2023-12-29T02:35:21;11.10;99.90
1405;DHT22;697;51.114;6.542;2023-12-29T02:37:49;11.00;99.90
1405;DHT22;697;51.114;6.542;2023-12-29T02:40:18;11.00;99.90
1405;DHT22;697;51.114;6.542;2023-12-29T02:42:46;11.00;99.90
1405;DHT22;697;51.114;6.542;2023-12-29T02:45:14;11.00;99.90
1405;DHT22;697;51.114;6.542;2023-12-29T02:47:41;11.00;99.90
1405;DHT22;697;51.114;6.542;2023-12-29T02:50:08;11.00;99.90
1405;DHT22;697;51.114;6.542;2023-12-29T02:52:35;11.00;99.90
1405;DHT22;697;51.114;6.542;2023-12-29T02:55:02;11.00;99.90
1405;DHT22;697;51.114;6.542;2023-12-29T02:57:31;11.00;99.90
1405;DHT22;697;51.114;6.542;2023-12-29T02:59:57;11.00;99.90
1405;DHT22;697;51.114;6.542;2023-12-29T03:02:24;11.10;99.90
1405;DHT22;697;51.114;6.542;2023-12-29T03:04:51;11.00;99.90
1405;DHT22;697;51.114;6.542;2023-12-29T03:07:18;11.00;99.90
1405;DHT22;697;51.114;6.542;2023-12-29T03:09:44;11.00;99.90
1405;DHT22;697;51.114;6.542;2023-12-29T03:12:11;11.00;99.90
1405;DHT22;697;51.114;6.542;2023-12-29T03:14:39;11.00;99.90
1405;DHT22;697;51.114;6.542;2023-12-29T03:17:06;11.00;99.90
1405;DHT22;697;51.114;6.542;2023-12-29T03:19:33;11.10;99.90
1405;DHT22;697;51.114;6.542;2023-12-29T03:21:59;11.10;99.90
1405;DHT22;697;51.114;6.542;2023-12-29T03:24:26;11.10;99.90
1405;DHT22;697;51.114;6.542;2023-12-29T03:26:53;11.20;99.90
1405;DHT22;697;51.114;6.542;2023-12-29T03:29:20;11.30;99.90
1405;DHT22;697;51.114;6.542;2023-12-29T03:31:48;11.20;99.90
1405;DHT22;697;51.114;6.542;2023-12-29T03:34:15;11.30;99.90
1405;DHT22;697;51.114;6.542;2023-12-29T03:36:42;11.30;99.90
1405;DHT22;697;51.114;6.542;2023-12-29T03:39:08;11.30;99.90
1405;DHT22;697;51.114;6.542;2023-12-29T03:41:35;11.30;99.90
1405;DHT22;697;51.114;6.542;2023-12-29T03:44:02;11.30;99.90
1405;DHT22;697;51.114;6.542;2023-12-29T03:46:29;11.40;99.90
1405;DHT22;697;51.114;6.542;2023-12-29T03:48:58;11.40;99.90
1405;DHT22;697;51.114;6.542;2023-12-29T03:51:25;11.40;99.90
1405;DHT22;697;51.114;6.542;2023-12-29T03:53:52;11.40;99.90
1405;DHT22;697;51.114;6.542;2023-12-29T03:56:18;11.50;99.90
1405;DHT22;697;51.114;6.542;2023-12-29T03:58:46;11.50;99.90
1405;DHT22;697;51.114;6.542;2023-12-29T04:01:13;11.50;99.90
1405;DHT22;697;51.114;6.542;2023-12-29T04:03:40;11.50;99.90
1405;DHT22;697;51.114;6.542;2023-12-29T04:06:09;11.50;99.90
1405;DHT22;697;51.114;6.542;2023-12-29T04:08:36;11.50;99.90
1405;DHT22;697;51.114;6.542;2023-12-29T04:11:03;11.50;99.90
1405;DHT22;697;51.114;6.542;2023-12-29T04:13:30;11.50;99.90
1405;DHT22;697;51.114;6.542;2023-12-29T04:15:57;11.50;99.90
1405;DHT22;697;51.114;6.542;2023-12-29T04:18:24;11.50;99.90
1405;DHT22;697;51.114;6.542;2023-12-29T04:20:51;11.50;99.90
1405;DHT22;697;51.114;6.542;2023-12-29T04:23:19;11.50;99.90
1405;DHT22;697;51.114;6.542;2023-12-29T04:25:46;11.50;99.90
1405;DHT22;697;51.114;6.542;2023-12-29T04:28:13;11.50;99.90
1405;DHT22;697;51.114;6.542;2023-12-29T04:30:39;11.50;99.90
1405;DHT22;697;51.114;6.542;2023-12-29T04:33:06;11.50;99.90
1405;DHT22;697;51.114;6.542;2023-12-29T04:35:33;11.40;99.90
1405;DHT22;697;51.114;6.542;2023-12-29T04:38:00;11.40;99.90
1405;DHT22;697;51.114;6.542;2023-12-29T04:40:28;11.40;99.90
1405;DHT22;697;51.114;6.542;2023-12-29T04:42:54;11.40;99.90
1405;DHT22;697;51.114;6.542;2023-12-29T04:45:21;11.40;99.90
1405;DHT22;697;51.114;6.542;2023-12-29T04:47:48;11.40;99.90
1405;DHT22;697;51.114;6.542;2023-12-29T04:50:15;11.40;99.90
1405;DHT22;697;51.114;6.542;2023-12-29T04:52:42;11.50;99.90
1405;DHT22;697;51.114;6.542;2023-12-29T04:55:08;11.40;99.90
1405;DHT22;697;51.114;6.542;2023-12-29T04:57:37;11.50;99.90
1405;DHT22;697;51.114;6.542;2023-12-29T05:00:05;11.40;99.90
1405;DHT22;697;51.114;6.542;2023-12-29T05:02:32;11.40;99.90
1405;DHT22;697;51.114;6.542;2023-12-29T05:04:59;11.40;99.90
1405;DHT22;697;51.114;6.542;2023-12-29T05:07:26;11.40;99.90
1405;DHT22;697;51.114;6.542;2023-12-29T05:09:53;11.40;99.90
1405;DHT22;697;51.114;6.542;2023-12-29T05:12:20;11.40;99.90
1405;DHT22;697;51.114;6.542;2023-12-29T05:14:48;11.40;99.90
1405;DHT22;697;51.114;6.542;2023-12-29T05:17:15;11.40;99.90
1405;DHT22;697;51.114;6.542;2023-12-29T05:19:41;11.30;99.90
1405;DHT22;697;51.114;6.542;2023-12-29T05:22:08;11.30;99.90
1405;DHT22;697;51.114;6.542;2023-12-29T05:24:37;11.30;99.90
1405;DHT22;697;51.114;6.542;2023-12-29T05:27:04;11.30;99.90
1405;DHT22;697;51.114;6.542;2023-12-29T05:29:30;11.30;99.90
1405;DHT22;697;51.114;6.542;2023-12-29T05:31:59;11.30;99.90
1405;DHT22;697;51.114;6.542;2023-12-29T05:34:27;11.30;99.90
1405;DHT22;697;51.114;6.542;2023-12-29T05:36:54;11.30;99.90
1405;DHT22;697;51.114;6.542;2023-12-29T05:39:24;11.30;99.90
1405;DHT22;697;51.114;6.542;2023-12-29T05:41:51;11.30;99.90
1405;DHT22;697;51.114;6.542;2023-12-29T05:44:18;11.30;99.90
1405;DHT22;697;51.114;6.542;2023-12-29T05:46:46;11.30;99.90
1405;DHT22;697;51.114;6.542;2023-12-29T05:49:14;11.30;99.90
1405;DHT22;697;51.114;6.542;2023-12-29T05:51:41;11.30;99.90
1405;DHT22;697;51.114;6.542;2023-12-29T05:54:08;11.30;99.90
1405;DHT22;697;51.114;6.542;2023-12-29T05:56:34;11.30;99.90
1405;DHT22;697;51.114;6.542;2023-12-29T05:59:01;11.30;99.90
1405;DHT22;697;51.114;6.542;2023-12-29T06:01:28;11.20;99.90
1405;DHT22;697;51.114;6.542;2023-12-29T06:03:55;11.20;99.90
1405;DHT22;697;51.114;6.542;2023-12-29T06:06:23;11.30;99.90
1405;DHT22;697;51.114;6.542;2023-12-29T06:08:50;11.30;99.90
1405;DHT22;697;51.114;6.542;2023-12-29T06:11:17;11.20;99.90
1405;DHT22;697;51.114;6.542;2023-12-29T06:13:44;11.20;99.90
1405;DHT22;697;51.114;6.542;2023-12-29T06:16:17;11.20;99.90
1405;DHT22;697;51.114;6.542;2023-12-29T06:18:44;11.20;99.90
1405;DHT22;697;51.114;6.542;2023-12-29T06:21:11;11.20;99.90
1405;DHT22;697;51.114;6.542;2023-12-29T06:23:39;11.20;99.90
1405;DHT22;697;51.114;6.542;2023-12-29T06:26:13;11.20;99.90
1405;DHT22;697;51.114;6.542;2023-12-29T06:28:40;11.20;99.90
1405;DHT22;697;51.114;6.542;2023-12-29T06:31:07;11.20;99.90
1405;DHT22;697;51.114;6.542;2023-12-29T06:33:34;11.30;99.90
1405;DHT22;697;51.114;6.542;2023-12-29T06:36:02;11.20;99.90
1405;DHT22;697;51.114;6.542;2023-12-29T06:38:29;11.30;99.90
1405;DHT22;697;51.114;6.542;2023-12-29T06:40:57;11.30;99.90
1405;DHT22;697;51.114;6.542;2023-12-29T06:43:24;11.20;99.90
1405;DHT22;697;51.114;6.542;2023-12-29T06:45:51;11.30;99.90
1405;DHT22;697;51.114;6.542;2023-12-29T06:48:17;11.30;99.90
1405;DHT22;697;51.114;6.542;2023-12-29T06:50:45;11.30;99.90
1405;DHT22;697;51.114;6.542;2023-12-29T06:53:11;11.30;99.90
1405;DHT22;697;51.114;6.542;2023-12-29T06:55:38;11.30;99.90
1405;DHT22;697;51.114;6.542;2023-12-29T06:58:07;11.30;99.90
1405;DHT22;697;51.114;6.542;2023-12-29T07:00:34;11.30;99.90
1405;DHT22;697;51.114;6.542;2023-12-29T07:03:01;11.30;99.90
1405;DHT22;697;51.114;6.542;2023-12-29T07:05:28;11.30;99.90
1405;DHT22;697;51.114;6.542;2023-12-29T07:07:54;11.40;99.90
1405;DHT22;697;51.114;6.542;2023-12-29T07:10:21;11.40;99.90
1405;DHT22;697;51.114;6.542;2023-12-29T07:12:48;11.40;99.90
1405;DHT22;697;51.114;6.542;2023-12-29T07:15:17;11.40;99.90
1405;DHT22;697;51.114;6.542;2023-12-29T07:17:44;11.40;99.90
1405;DHT22;697;51.114;6.542;2023-12-29T07:20:11;11.40;99.90
1405;DHT22;697;51.114;6.542;2023-12-29T07:22:38;11.40;99.90
1405;DHT22;697;51.114;6.542;2023-12-29T07:25:05;11.40;99.90
1405;DHT22;697;51.114;6.542;2023-12-29T07:27:32;11.40;99.90
1405;DHT22;697;51.114;6.542;2023-12-29T07:29:59;11.40;99.90
1405;DHT22;697;51.114;6.542;2023-12-29T07:32:27;11.40;99.90
1405;DHT22;697;51.114;6.542;2023-12-29T07:34:55;11.40;99.90
1405;DHT22;697;51.114;6.542;2023-12-29T07:37:23;11.40;99.90
1405;DHT22;697;51.114;6.542;2023-12-29T07:39:50;11.40;99.90
1405;DHT22;697;51.114;6.542;2023-12-29T07:42:18;11.30;99.90
1405;DHT22;697;51.114;6.542;2023-12-29T07:44:45;11.20;99.90
1405;DHT22;697;51.114;6.542;2023-12-29T07:47:12;11.10;99.90
1405;DHT22;697;51.114;6.542;2023-12-29T07:49:41;11.00;99.90
1405;DHT22;697;51.114;6.542;2023-12-29T07:52:08;11.00;99.90
1405;DHT22;697;51.114;6.542;2023-12-29T07:54:35;11.00;99.90
1405;DHT22;697;51.114;6.542;2023-12-29T07:57:01;10.90;99.90
1405;DHT22;697;51.114;6.542;2023-12-29T07:59:28;10.90;99.90
1405;DHT22;697;51.114;6.542;2023-12-29T08:01:55;11.00;99.90
1405;DHT22;697;51.114;6.542;2023-12-29T08:04:23;10.90;99.90
1405;DHT22;697;51.114;6.542;2023-12-29T08:06:51;10.90;99.90
1405;DHT22;697;51.114;6.542;2023-12-29T08:09:18;10.80;99.90
1405;DHT22;697;51.114;6.542;2023-12-29T08:11:45;10.70;99.90
1405;DHT22;697;51.114;6.542;2023-12-29T08:14:12;10.70;99.90
1405;DHT22;697;51.114;6.542;2023-12-29T08:16:39;10.70;99.90
1405;DHT22;697;51.114;6.542;2023-12-29T08:19:06;10.60;99.90
1405;DHT22;697;51.114;6.542;2023-12-29T08:21:33;10.60;99.90
1405;DHT22;697;51.114;6.542;2023-12-29T08:24:02;10.50;99.90
1405;DHT22;697;51.114;6.542;2023-12-29T08:26:29;10.50;99.90
1405;DHT22;697;51.114;6.542;2023-12-29T08:28:55;10.40;99.90
1405;DHT22;697;51.114;6.542;2023-12-29T08:31:22;10.40;99.90
1405;DHT22;697;51.114;6.542;2023-12-29T08:33:49;10.40;99.90
1405;DHT22;697;51.114;6.542;2023-12-29T08:36:18;10.40;99.90
1405;DHT22;697;51.114;6.542;2023-12-29T08:38:45;10.40;99.90
1405;DHT22;697;51.114;6.542;2023-12-29T08:41:15;10.30;99.90
1405;DHT22;697;51.114;6.542;2023-12-29T08:43:41;10.20;99.90
1405;DHT22;697;51.114;6.542;2023-12-29T08:46:08;10.20;99.90
1405;DHT22;697;51.114;6.542;2023-12-29T08:48:35;10.20;99.90
1405;DHT22;697;51.114;6.542;2023-12-29T08:51:02;10.30;99.90
1405;DHT22;697;51.114;6.542;2023-12-29T08:53:29;10.30;99.90
1405;DHT22;697;51.114;6.542;2023-12-29T08:55:59;10.40;99.90
1405;DHT22;697;51.114;6.542;2023-12-29T08:58:28;10.40;99.90
1405;DHT22;697;51.114;6.542;2023-12-29T09:00:54;10.50;99.90
1405;DHT22;697;51.114;6.542;2023-12-29T09:03:21;10.50;99.90
1405;DHT22;697;51.114;6.542;2023-12-29T09:05:48;10.50;99.90
1405;DHT22;697;51.114;6.542;2023-12-29T09:08:15;10.50;99.90
1405;DHT22;697;51.114;6.542;2023-12-29T09:10:42;10.50;99.90
1405;DHT22;697;51.114;6.542;2023-12-29T09:13:09;10.60;99.90
1405;DHT22;697;51.114;6.542;2023-12-29T09:15:37;10.50;99.90
1405;DHT22;697;51.114;6.542;2023-12-29T09:18:04;10.50;99.90
1405;DHT22;697;51.114;6.542;2023-12-29T09:20:31;10.60;99.90
1405;DHT22;697;51.114;6.542;2023-12-29T09:22:58;10.60;99.90
1405;DHT22;697;51.114;6.542;2023-12-29T09:25:25;10.60;99.90
1405;DHT22;697;51.114;6.542;2023-12-29T09:27:53;10.70;99.90
1405;DHT22;697;51.114;6.542;2023-12-29T09:30:20;10.60;99.90
1405;DHT22;697;51.114;6.542;2023-12-29T09:32:48;10.60;99.90
1405;DHT22;697;51.114;6.542;2023-12-29T09:35:14;10.60;99.90
1405;DHT22;697;51.114;6.542;2023-12-29T09:37:42;10.60;99.90
1405;DHT22;697;51.114;6.542;2023-12-29T09:40:10;10.60;99.90
1405;DHT22;697;51.114;6.542;2023-12-29T09:42:38;10.60;99.90
1405;DHT22;697;51.114;6.542;2023-12-29T09:45:09;10.70;99.90
1405;DHT22;697;51.114;6.542;2023-12-29T09:47:38;10.70;99.90
1405;DHT22;697;51.114;6.542;2023-12-29T09:50:10;10.70;99.90
1405;DHT22;697;51.114;6.542;2023-12-29T09:52:43;10.80;99.90
1405;DHT22;697;51.114;6.542;2023-12-29T09:55:10;10.90;99.90
1405;DHT22;697;51.114;6.542;2023-12-29T09:57:37;11.00;99.90
1405;DHT22;697;51.114;6.542;2023-12-29T10:00:06;11.10;99.90
1405;DHT22;697;51.114;6.542;2023-12-29T10:02:33;11.20;99.90
1405;DHT22;697;51.114;6.542;2023-12-29T10:05:03;11.30;99.90
1405;DHT22;697;51.114;6.542;2023-12-29T10:07:36;11.30;99.90
1405;DHT22;697;51.114;6.542;2023-12-29T10:10:05;11.30;99.90
1405;DHT22;697;51.114;6.542;2023-12-29T10:12:33;11.30;99.90
1405;DHT22;697;51.114;6.542;2023-12-29T10:15:05;11.30;99.90
1405;DHT22;697;51.114;6.542;2023-12-29T10:17:43;11.30;99.90
1405;DHT22;697;51.114;6.542;2023-12-29T10:20:20;11.40;99.90
1405;DHT22;697;51.114;6.542;2023-12-29T10:22:58;11.40;99.90
1405;DHT22;697;51.114;6.542;2023-12-29T10:25:27;11.40;99.90
1405;DHT22;697;51.114;6.542;2023-12-29T10:27:56;11.40;99.90
1405;DHT22;697;51.114;6.542;2023-12-29T10:30:24;11.50;99.90
1405;DHT22;697;51.114;6.542;2023-12-29T10:32:51;11.40;99.90
1405;DHT22;697;51.114;6.542;2023-12-29T10:35:18;11.40;99.90
1405;DHT22;697;51.114;6.542;2023-12-29T10:37:45;11.40;99.90
1405;DHT22;697;51.114;6.542;2023-12-29T10:40:18;11.50;99.90
1405;DHT22;697;51.114;6.542;2023-12-29T10:42:54;11.50;99.90
1405;DHT22;697;51.114;6.542;2023-12-29T10:45:23;11.60;99.90
1405;DHT22;697;51.114;6.542;2023-12-29T10:47:50;11.70;99.90
1405;DHT22;697;51.114;6.542;2023-12-29T10:50:17;11.70;99.90
1405;DHT22;697;51.114;6.542;2023-12-29T10:52:44;11.80;99.90
1405;DHT22;697;51.114;6.542;2023-12-29T10:55:12;12.00;99.90
1405;DHT22;697;51.114;6.542;2023-12-29T10:57:40;12.10;99.90
1405;DHT22;697;51.114;6.542;2023-12-29T11:00:08;12.20;99.90
1405;DHT22;697;51.114;6.542;2023-12-29T11:02:37;12.30;99.90
1405;DHT22;697;51.114;6.542;2023-12-29T11:05:06;12.40;99.90
1405;DHT22;697;51.114;6.542;2023-12-29T11:07:34;12.40;99.90
1405;DHT22;697;51.114;6.542;2023-12-29T11:10:03;12.40;99.90
1405;DHT22;697;51.114;6.542;2023-12-29T11:12:32;12.40;99.90
1405;DHT22;697;51.114;6.542;2023-12-29T11:15:02;12.40;99.90
1405;DHT22;697;51.114;6.542;2023-12-29T11:17:30;12.40;99.90
1405;DHT22;697;51.114;6.542;2023-12-29T11:19:58;12.40;99.90
1405;DHT22;697;51.114;6.542;2023-12-29T11:22:28;12.40;99.90
1405;DHT22;697;51.114;6.542;2023-12-29T11:24:55;12.30;99.90
1405;DHT22;697;51.114;6.542;2023-12-29T11:27:26;12.30;99.90
1405;DHT22;697;51.114;6.542;2023-12-29T11:29:55;12.30;99.90
1405;DHT22;697;51.114;6.542;2023-12-29T11:32:34;12.20;99.90
1405;DHT22;697;51.114;6.542;2023-12-29T11:35:12;12.20;99.90
1405;DHT22;697;51.114;6.542;2023-12-29T11:37:59;12.20;99.90
1405;DHT22;697;51.114;6.542;2023-12-29T11:40:31;12.10;99.90
1405;DHT22;697;51.114;6.542;2023-12-29T11:43:05;12.10;99.90
1405;DHT22;697;51.114;6.542;2023-12-29T11:45:34;12.10;99.90
1405;DHT22;697;51.114;6.542;2023-12-29T11:48:04;12.10;99.90
1405;DHT22;697;51.114;6.542;2023-12-29T11:50:32;12.00;99.90
1405;DHT22;697;51.114;6.542;2023-12-29T11:52:59;12.00;99.90
1405;DHT22;697;51.114;6.542;2023-12-29T11:55:30;11.90;99.90
1405;DHT22;697;51.114;6.542;2023-12-29T11:57:57;11.90;99.90
1405;DHT22;697;51.114;6.542;2023-12-29T12:00:41;11.90;99.90
1405;DHT22;697;51.114;6.542;2023-12-29T12:03:31;11.90;99.90
1405;DHT22;697;51.114;6.542;2023-12-29T12:05:58;11.90;99.90
1405;DHT22;697;51.114;6.542;2023-12-29T12:08:30;12.00;99.90
1405;DHT22;697;51.114;6.542;2023-12-29T12:13:47;12.00;99.90
1405;DHT22;697;51.114;6.542;2023-12-29T12:16:49;12.10;99.90
1405;DHT22;697;51.114;6.542;2023-12-29T12:19:19;12.10;99.90
1405;DHT22;697;51.114;6.542;2023-12-29T12:21:47;12.10;99.90
1405;DHT22;697;51.114;6.542;2023-12-29T12:24:16;12.00;99.90
1405;DHT22;697;51.114;6.542;2023-12-29T12:26:44;12.00;99.90
1405;DHT22;697;51.114;6.542;2023-12-29T12:29:13;12.10;99.90
1405;DHT22;697;51.114;6.542;2023-12-29T12:31:51;12.00;99.90
1405;DHT22;697;51.114;6.542;2023-12-29T12:34:21;11.90;99.90
1405;DHT22;697;51.114;6.542;2023-12-29T12:36:48;11.80;99.90
1405;DHT22;697;51.114;6.542;2023-12-29T12:39:16;11.80;99.90
1405;DHT22;697;51.114;6.542;2023-12-29T12:41:43;11.70;99.90
1405;DHT22;697;51.114;6.542;2023-12-29T12:44:11;11.70;99.90
1405;DHT22;697;51.114;6.542;2023-12-29T12:46:41;11.60;99.90
1405;DHT22;697;51.114;6.542;2023-12-29T12:49:08;11.70;99.90
1405;DHT22;697;51.114;6.542;2023-12-29T12:51:36;11.70;99.90
1405;DHT22;697;51.114;6.542;2023-12-29T12:54:04;11.70;99.90
1405;DHT22;697;51.114;6.542;2023-12-29T12:56:31;11.70;99.90
1405;DHT22;697;51.114;6.542;2023-12-29T12:58:58;11.70;99.90
1405;DHT22;697;51.114;6.542;2023-12-29T13:01:28;11.70;99.90
1405;DHT22;697;51.114;6.542;2023-12-29T13:03:57;11.80;99.90
1405;DHT22;697;51.114;6.542;2023-12-29T13:06:25;11.80;99.90
1405;DHT22;697;51.114;6.542;2023-12-29T13:08:53;11.80;99.90
1405;DHT22;697;51.114;6.542;2023-12-29T13:11:20;11.80;99.90
1405;DHT22;697;51.114;6.542;2023-12-29T13:13:51;11.80;99.90
1405;DHT22;697;51.114;6.542;2023-12-29T13:16:28;11.80;99.90
1405;DHT22;697;51.114;6.542;2023-12-29T13:18:55;11.70;99.90
1405;DHT22;697;51.114;6.542;2023-12-29T13:21:22;11.70;99.90
1405;DHT22;697;51.114;6.542;2023-12-29T13:23:49;11.80;99.90
1405;DHT22;697;51.114;6.542;2023-12-29T13:26:18;11.80;99.90
1405;DHT22;697;51.114;6.542;2023-12-29T13:28:46;11.90;99.90
1405;DHT22;697;51.114;6.542;2023-12-29T13:31:13;11.80;99.90
1405;DHT22;697;51.114;6.542;2023-12-29T13:33:47;11.80;99.90
1405;DHT22;697;51.114;6.542;2023-12-29T13:36:23;11.80;99.90
1405;DHT22;697;51.114;6.542;2023-12-29T13:38:53;11.80;99.90
1405;DHT22;697;51.114;6.542;2023-12-29T13:41:25;11.80;99.90
1405;DHT22;697;51.114;6.542;2023-12-29T13:43:54;11.80;99.90
1405;DHT22;697;51.114;6.542;2023-12-29T13:46:21;11.80;99.90
1405;DHT22;697;51.114;6.542;2023-12-29T13:48:49;11.80;99.90
1405;DHT22;697;51.114;6.542;2023-12-29T13:51:16;11.80;99.90
1405;DHT22;697;51.114;6.542;2023-12-29T13:53:44;11.80;99.90
1405;DHT22;697;51.114;6.542;2023-12-29T13:56:11;11.70;99.90
1405;DHT22;697;51.114;6.542;2023-12-29T13:58:40;11.70;99.90
1405;DHT22;697;51.114;6.542;2023-12-29T14:01:08;11.70;99.90
1405;DHT22;697;51.114;6.542;2023-12-29T14:03:42;11.60;99.90
1405;DHT22;697;51.114;6.542;2023-12-29T14:06:12;11.60;99.90
1405;DHT22;697;51.114;6.542;2023-12-29T14:08:41;11.60;99.90
1405;DHT22;697;51.114;6.542;2023-12-29T14:11:11;11.50;99.90
1405;DHT22;697;51.114;6.542;2023-12-29T14:13:42;11.60;99.90
1405;DHT22;697;51.114;6.542;2023-12-29T14:16:10;11.40;99.90
1405;DHT22;697;51.114;6.542;2023-12-29T14:18:52;11.30;99.90
1405;DHT22;697;51.114;6.542;2023-12-29T14:21:24;11.30;99.90
1405;DHT22;697;51.114;6.542;2023-12-29T14:24:02;11.20;99.90
1405;DHT22;697;51.114;6.542;2023-12-29T14:26:32;11.20;99.90
1405;DHT22;697;51.114;6.542;2023-12-29T14:29:04;11.10;99.90
1405;DHT22;697;51.114;6.542;2023-12-29T14:31:33;11.10;99.90
1405;DHT22;697;51.114;6.542;2023-12-29T14:34:02;11.10;99.90
1405;DHT22;697;51.114;6.542;2023-12-29T14:36:29;11.10;99.90
1405;DHT22;697;51.114;6.542;2023-12-29T14:38:56;11.10;99.90
1405;DHT22;697;51.114;6.542;2023-12-29T14:41:23;11.20;99.90
1405;DHT22;697;51.114;6.542;2023-12-29T14:43:50;11.20;99.90
1405;DHT22;697;51.114;6.542;2023-12-29T14:46:18;11.20;99.90
1405;DHT22;697;51.114;6.542;2023-12-29T14:48:45;11.20;99.90
1405;DHT22;697;51.114;6.542;2023-12-29T14:51:12;11.20;99.90
1405;DHT22;697;51.114;6.542;2023-12-29T14:53:39;11.20;99.90
1405;DHT22;697;51.114;6.542;2023-12-29T14:56:06;11.10;99.90
1405;DHT22;697;51.114;6.542;2023-12-29T14:58:34;11.20;99.90
1405;DHT22;697;51.114;6.542;2023-12-29T15:01:02;11.20;99.90
1405;DHT22;697;51.114;6.542;2023-12-29T15:03:30;11.20;99.90
1405;DHT22;697;51.114;6.542;2023-12-29T15:05:57;11.20;99.90
1405;DHT22;697;51.114;6.542;2023-12-29T15:08:24;11.20;99.90
1405;DHT22;697;51.114;6.542;2023-12-29T15:10:53;11.30;99.90
1405;DHT22;697;51.114;6.542;2023-12-29T15:13:20;11.30;99.90
1405;DHT22;697;51.114;6.542;2023-12-29T15:15:46;11.20;99.90
1405;DHT22;697;51.114;6.542;2023-12-29T15:18:13;11.30;99.90
1405;DHT22;697;51.114;6.542;2023-12-29T15:20:43;11.30;99.90
1405;DHT22;697;51.114;6.542;2023-12-29T15:23:11;11.30;99.90
1405;DHT22;697;51.114;6.542;2023-12-29T15:25:38;11.30;99.90
1405;DHT22;697;51.114;6.542;2023-12-29T15:28:04;11.20;99.90
1405;DHT22;697;51.114;6.542;2023-12-29T15:30:32;11.20;99.90
1405;DHT22;697;51.114;6.542;2023-12-29T15:32:58;11.20;99.90
1405;DHT22;697;51.114;6.542;2023-12-29T15:35:25;11.20;99.90
1405;DHT22;697;51.114;6.542;2023-12-29T15:37:55;11.20;99.90
1405;DHT22;697;51.114;6.542;2023-12-29T15:40:22;11.20;99.90
1405;DHT22;697;51.114;6.542;2023-12-29T15:42:48;11.20;99.90
1405;DHT22;697;51.114;6.542;2023-12-29T15:45:15;11.20;99.90
1405;DHT22;697;51.114;6.542;2023-12-29T15:47:44;11.20;99.90
1405;DHT22;697;51.114;6.542;2023-12-29T15:50:11;11.10;99.90
1405;DHT22;697;51.114;6.542;2023-12-29T15:52:37;11.20;99.90
1405;DHT22;697;51.114;6.542;2023-12-29T15:55:07;11.10;99.90
1405;DHT22;697;51.114;6.542;2023-12-29T15:57:34;11.10;99.90
1405;DHT22;697;51.114;6.542;2023-12-29T16:00:03;11.10;99.90
1405;DHT22;697;51.114;6.542;2023-12-29T16:02:31;11.10;99.90
1405;DHT22;697;51.114;6.542;2023-12-29T16:04:58;11.10;99.90
1405;DHT22;697;51.114;6.542;2023-12-29T16:07:25;11.20;99.90
1405;DHT22;697;51.114;6.542;2023-12-29T16:09:51;11.10;99.90
1405;DHT22;697;51.114;6.542;2023-12-29T16:12:19;11.20;99.90
1405;DHT22;697;51.114;6.542;2023-12-29T16:14:46;11.10;99.90
1405;DHT22;697;51.114;6.542;2023-12-29T16:17:13;11.10;99.90
1405;DHT22;697;51.114;6.542;2023-12-29T16:19:40;11.00;99.90
1405;DHT22;697;51.114;6.542;2023-12-29T16:22:08;11.00;99.90
1405;DHT22;697;51.114;6.542;2023-12-29T16:24:37;11.00;99.90